sensor_id;sensor_type;location;lat;lon;timestamp;pressure;altitude;pressure_sealevel;temperature;humidity
54459;BME280;40368;49.350;8.152;2024-03-23T00:53:55;993.5;;;15.52;54.15
54459;BME280;40368;49.350;8.152;2024-03-23T00:54:55;993.5;;;15.54;54.06
54459;BME280;40368;49.350;8.152;2024-03-23T00:55:55;993.5;;;15.58;54.17
54459;BME280;40368;49.350;8.152;2024-03-23T00:56:55;993.5;;;15.58;53.96
54459;BME280;40368;49.350;8.152;2024-03-23T00:57:55;993.4;;;15.58;53.73
54459;BME280;40368;49.350;8.152;2024-03-23T00:58:55;993.4;;;15.58;54.02
54459;BME280;40368;49.350;8.152;2024-03-23T00:59:55;993.4;;;15.56;54.03
54459;BME280;40368;49.350;8.152;2024-03-23T01:00:55;993.4;;;15.52;54.22
54459;BME280;40368;49.350;8.152;2024-03-23T01:01:55;993.4;;;15.52;53.99
54459;BME280;40368;49.350;8.152;2024-03-23T01:02:55;993.4;;;15.52;54.17
54459;BME280;40368;49.350;8.152;2024-03-23T01:03:55;993.4;;;15.53;54.12
54459;BME280;40368;49.350;8.152;2024-03-23T01:04:55;993.3;;;15.52;54.16
54459;BME280;40368;49.350;8.152;2024-03-23T01:05:58;993.3;;;15.52;54.13
54459;BME280;40368;49.350;8.152;2024-03-23T01:06:56;993.3;;;15.52;54.24
54459;BME280;40368;49.350;8.152;2024-03-23T01:07:55;993.2;;;15.54;54.05
54459;BME280;40368;49.350;8.152;2024-03-23T01:08:55;993.2;;;15.53;54.14
54459;BME280;40368;49.350;8.152;2024-03-23T01:09:55;993.2;;;15.53;54.15
54459;BME280;40368;49.350;8.152;2024-03-23T01:10:55;993.2;;;15.53;54.06
54459;BME280;40368;49.350;8.152;2024-03-23T01:11:55;993.2;;;15.55;54.02
54459;BME280;40368;49.350;8.152;2024-03-23T01:12:55;993.2;;;15.57;53.95
54459;BME280;40368;49.350;8.152;2024-03-23T01:13:55;993.2;;;15.57;53.92
54459;BME280;40368;49.350;8.152;2024-03-23T01:14:55;993.2;;;15.57;53.79
54459;BME280;40368;49.350;8.152;2024-03-23T01:15:56;993.2;;;15.6;53.72
54459;BME280;40368;49.350;8.152;2024-03-23T01:16:55;993.1;;;15.59;53.81
54459;BME280;40368;49.350;8.152;2024-03-23T01:17:55;993.2;;;15.59;53.75
54459;BME280;40368;49.350;8.152;2024-03-23T01:18:55;993.2;;;15.61;53.78
54459;BME280;40368;49.350;8.152;2024-03-23T01:19:55;993.2;;;15.62;53.75
54459;BME280;40368;49.350;8.152;2024-03-23T01:20:55;993.2;;;15.62;53.66
54459;BME280;40368;49.350;8.152;2024-03-23T01:21:56;993.1;;;15.66;53.65
54459;BME280;40368;49.350;8.152;2024-03-23T01:22:55;993.2;;;15.68;53.53
54459;BME280;40368;49.350;8.152;2024-03-23T01:23:55;993.2;;;15.63;53.57
54459;BME280;40368;49.350;8.152;2024-03-23T01:24:55;993.1;;;15.64;53.59
54459;BME280;40368;49.350;8.152;2024-03-23T01:25:55;993.1;;;15.63;53.67
54459;BME280;40368;49.350;8.152;2024-03-23T01:26:55;993.1;;;15.6;53.62
54459;BME280;40368;49.350;8.152;2024-03-23T01:27:55;993.1;;;15.64;53.56
54459;BME280;40368;49.350;8.152;2024-03-23T01:28:55;993.1;;;15.67;53.6
54459;BME280;40368;49.350;8.152;2024-03-23T01:29:54;993.1;;;15.65;53.53
54459;BME280;40368;49.350;8.152;2024-03-23T01:30:55;993;;;15.63;53.5
54459;BME280;40368;49.350;8.152;2024-03-23T01:31:55;993;;;15.58;53.69
54459;BME280;40368;49.350;8.152;2024-03-23T01:32:55;992.9;;;15.56;53.7
54459;BME280;40368;49.350;8.152;2024-03-23T01:33:55;992.9;;;15.57;53.74
54459;BME280;40368;49.350;8.152;2024-03-23T01:34:55;993;;;15.58;53.71
54459;BME280;40368;49.350;8.152;2024-03-23T01:35:55;993;;;15.58;53.62
54459;BME280;40368;49.350;8.152;2024-03-23T01:36:54;993;;;15.56;53.72
54459;BME280;40368;49.350;8.152;2024-03-23T01:37:55;992.9;;;15.52;53.81
54459;BME280;40368;49.350;8.152;2024-03-23T01:38:55;993;;;15.52;53.7
54459;BME280;40368;49.350;8.152;2024-03-23T01:39:55;993;;;15.56;53.77
54459;BME280;40368;49.350;8.152;2024-03-23T01:40:56;993;;;15.57;53.67
54459;BME280;40368;49.350;8.152;2024-03-23T01:41:55;993;;;15.59;53.73
54459;BME280;40368;49.350;8.152;2024-03-23T01:42:56;993;;;15.59;53.64
54459;BME280;40368;49.350;8.152;2024-03-23T01:43:56;993;;;15.58;53.63
54459;BME280;40368;49.350;8.152;2024-03-23T01:44:55;992.9;;;15.56;53.55
54459;BME280;40368;49.350;8.152;2024-03-23T01:45:55;992.9;;;15.55;53.72
54459;BME280;40368;49.350;8.152;2024-03-23T01:46:56;992.9;;;15.52;53.82
54459;BME280;40368;49.350;8.152;2024-03-23T01:47:55;993;;;15.5;53.87
54459;BME280;40368;49.350;8.152;2024-03-23T01:49:02;993;;;15.48;53.85
54459;BME280;40368;49.350;8.152;2024-03-23T01:49:57;993;;;15.49;53.8
54459;BME280;40368;49.350;8.152;2024-03-23T01:51:02;993;;;15.47;53.86
54459;BME280;40368;49.350;8.152;2024-03-23T01:51:55;992.9;;;15.45;53.94
54459;BME280;40368;49.350;8.152;2024-03-23T01:52:58;992.9;;;15.45;53.97
54459;BME280;40368;49.350;8.152;2024-03-23T01:53:55;992.9;;;15.47;54.02
54459;BME280;40368;49.350;8.152;2024-03-23T01:55:06;993;;;15.43;54.12
54459;BME280;40368;49.350;8.152;2024-03-23T01:56:01;992.8;;;15.41;54.14
54459;BME280;40368;49.350;8.152;2024-03-23T01:56:55;992.9;;;15.42;54.16
54459;BME280;40368;49.350;8.152;2024-03-23T01:57:56;992.8;;;15.43;54.22
54459;BME280;40368;49.350;8.152;2024-03-23T01:58:55;992.8;;;15.39;54.16
54459;BME280;40368;49.350;8.152;2024-03-23T01:59:56;992.8;;;15.43;54.08
54459;BME280;40368;49.350;8.152;2024-03-23T02:00:55;992.8;;;15.44;54.1
54459;BME280;40368;49.350;8.152;2024-03-23T02:01:55;992.8;;;15.39;54.32
54459;BME280;40368;49.350;8.152;2024-03-23T02:02:55;992.8;;;15.36;54.2
54459;BME280;40368;49.350;8.152;2024-03-23T02:03:55;992.7;;;15.41;54.07
54459;BME280;40368;49.350;8.152;2024-03-23T02:04:55;992.7;;;15.45;54.1
54459;BME280;40368;49.350;8.152;2024-03-23T02:05:55;992.7;;;15.48;53.97
54459;BME280;40368;49.350;8.152;2024-03-23T02:06:55;992.6;;;15.49;53.77
54459;BME280;40368;49.350;8.152;2024-03-23T02:07:55;992.7;;;15.52;53.67
54459;BME280;40368;49.350;8.152;2024-03-23T02:08:56;992.7;;;15.52;53.68
54459;BME280;40368;49.350;8.152;2024-03-23T02:09:55;992.7;;;15.52;53.8
54459;BME280;40368;49.350;8.152;2024-03-23T02:10:55;992.7;;;15.52;53.69
54459;BME280;40368;49.350;8.152;2024-03-23T02:11:56;992.7;;;15.5;53.88
54459;BME280;40368;49.350;8.152;2024-03-23T02:12:55;992.8;;;15.47;54.04
54459;BME280;40368;49.350;8.152;2024-03-23T02:13:55;992.7;;;15.48;53.94
54459;BME280;40368;49.350;8.152;2024-03-23T02:14:55;992.7;;;15.49;53.77
54459;BME280;40368;49.350;8.152;2024-03-23T02:15:55;992.7;;;15.5;53.89
54459;BME280;40368;49.350;8.152;2024-03-23T02:16:55;992.7;;;15.53;53.96
54459;BME280;40368;49.350;8.152;2024-03-23T02:17:56;992.7;;;15.52;54.23
54459;BME280;40368;49.350;8.152;2024-03-23T02:18:55;992.7;;;15.49;54.05
54459;BME280;40368;49.350;8.152;2024-03-23T02:19:55;992.6;;;15.44;53.93
54459;BME280;40368;49.350;8.152;2024-03-23T02:20:55;992.6;;;15.46;54.19
54459;BME280;40368;49.350;8.152;2024-03-23T02:21:55;992.6;;;15.48;54.26
54459;BME280;40368;49.350;8.152;2024-03-23T02:22:55;992.6;;;15.49;54.14
54459;BME280;40368;49.350;8.152;2024-03-23T02:23:55;992.6;;;15.44;54.35
54459;BME280;40368;49.350;8.152;2024-03-23T02:24:55;992.6;;;15.43;54.33
54459;BME280;40368;49.350;8.152;2024-03-23T02:25:55;992.6;;;15.38;54.46
54459;BME280;40368;49.350;8.152;2024-03-23T02:26:55;992.6;;;15.37;54.54
54459;BME280;40368;49.350;8.152;2024-03-23T02:27:55;992.6;;;15.35;54.47
54459;BME280;40368;49.350;8.152;2024-03-23T02:28:55;992.6;;;15.34;54.54
54459;BME280;40368;49.350;8.152;2024-03-23T02:30:55;992.5;;;15.28;54.43
54459;BME280;40368;49.350;8.152;2024-03-23T02:31:55;992.5;;;15.26;54.46
54459;BME280;40368;49.350;8.152;2024-03-23T02:32:56;992.6;;;15.27;54.34
54459;BME280;40368;49.350;8.152;2024-03-23T02:33:55;992.6;;;15.31;54.45
54459;BME280;40368;49.350;8.152;2024-03-23T02:34:55;992.6;;;15.36;54.36
54459;BME280;40368;49.350;8.152;2024-03-23T02:35:55;992.6;;;15.35;53.93
54459;BME280;40368;49.350;8.152;2024-03-23T02:36:55;992.6;;;15.35;53.86
54459;BME280;40368;49.350;8.152;2024-03-23T02:37:55;992.6;;;15.35;53.21
54459;BME280;40368;49.350;8.152;2024-03-23T02:38:56;992.6;;;15.36;53.41
54459;BME280;40368;49.350;8.152;2024-03-23T02:41:00;992.6;;;15.39;52.62
54459;BME280;40368;49.350;8.152;2024-03-23T02:41:55;992.6;;;15.4;52.54
54459;BME280;40368;49.350;8.152;2024-03-23T02:42:55;992.6;;;15.38;52.86
54459;BME280;40368;49.350;8.152;2024-03-23T02:43:55;992.6;;;15.36;52.51
54459;BME280;40368;49.350;8.152;2024-03-23T02:44:55;992.6;;;15.35;52.2
54459;BME280;40368;49.350;8.152;2024-03-23T02:45:55;992.6;;;15.35;52.37
54459;BME280;40368;49.350;8.152;2024-03-23T02:46:55;992.6;;;15.32;52.13
54459;BME280;40368;49.350;8.152;2024-03-23T02:47:55;992.6;;;15.33;52.02
54459;BME280;40368;49.350;8.152;2024-03-23T02:48:55;992.6;;;15.37;52.39
54459;BME280;40368;49.350;8.152;2024-03-23T02:49:55;992.7;;;15.39;51.91
54459;BME280;40368;49.350;8.152;2024-03-23T02:50:56;992.6;;;15.4;51.83
54459;BME280;40368;49.350;8.152;2024-03-23T02:51:56;992.6;;;15.41;52.32
54459;BME280;40368;49.350;8.152;2024-03-23T02:52:55;992.6;;;15.43;51.62
54459;BME280;40368;49.350;8.152;2024-03-23T02:53:55;992.7;;;15.45;52.4
54459;BME280;40368;49.350;8.152;2024-03-23T02:54:55;992.7;;;15.46;52.04
54459;BME280;40368;49.350;8.152;2024-03-23T02:55:57;992.6;;;15.47;52.15
54459;BME280;40368;49.350;8.152;2024-03-23T02:56:55;992.7;;;15.47;52.31
54459;BME280;40368;49.350;8.152;2024-03-23T02:57:55;992.6;;;15.47;51.86
54459;BME280;40368;49.350;8.152;2024-03-23T02:58:55;992.6;;;15.46;52.18
54459;BME280;40368;49.350;8.152;2024-03-23T02:59:55;992.6;;;15.47;52.27
54459;BME280;40368;49.350;8.152;2024-03-23T03:01:55;992.6;;;15.43;52.34
54459;BME280;40368;49.350;8.152;2024-03-23T03:02:55;992.6;;;15.44;52.36
54459;BME280;40368;49.350;8.152;2024-03-23T03:03:55;992.6;;;15.47;52.51
54459;BME280;40368;49.350;8.152;2024-03-23T03:04:56;992.6;;;15.46;52.3
54459;BME280;40368;49.350;8.152;2024-03-23T03:05:55;992.6;;;15.41;52.54
54459;BME280;40368;49.350;8.152;2024-03-23T03:06:55;992.6;;;15.4;52.82
54459;BME280;40368;49.350;8.152;2024-03-23T03:07:55;992.6;;;15.38;52.86
54459;BME280;40368;49.350;8.152;2024-03-23T03:08:55;992.6;;;15.4;52.79
54459;BME280;40368;49.350;8.152;2024-03-23T03:09:55;992.6;;;15.38;52.85
54459;BME280;40368;49.350;8.152;2024-03-23T03:10:55;992.6;;;15.36;52.89
54459;BME280;40368;49.350;8.152;2024-03-23T03:11:55;992.6;;;15.35;53.11
54459;BME280;40368;49.350;8.152;2024-03-23T03:12:55;992.5;;;15.36;53.02
54459;BME280;40368;49.350;8.152;2024-03-23T03:13:55;992.6;;;15.39;52.97
54459;BME280;40368;49.350;8.152;2024-03-23T03:14:55;992.6;;;15.42;52.88
54459;BME280;40368;49.350;8.152;2024-03-23T03:15:55;992.7;;;15.44;52.95
54459;BME280;40368;49.350;8.152;2024-03-23T03:16:54;992.6;;;15.44;52.91
54459;BME280;40368;49.350;8.152;2024-03-23T03:17:55;992.7;;;15.41;52.99
54459;BME280;40368;49.350;8.152;2024-03-23T03:18:55;992.5;;;15.38;53.12
54459;BME280;40368;49.350;8.152;2024-03-23T03:19:55;992.4;;;15.39;53.02
54459;BME280;40368;49.350;8.152;2024-03-23T03:20:55;992.4;;;15.4;53.05
54459;BME280;40368;49.350;8.152;2024-03-23T03:21:55;992.4;;;15.44;52.83
54459;BME280;40368;49.350;8.152;2024-03-23T03:22:56;992.5;;;15.45;52.86
54459;BME280;40368;49.350;8.152;2024-03-23T03:23:56;992.5;;;15.44;52.68
54459;BME280;40368;49.350;8.152;2024-03-23T03:24:55;992.4;;;15.4;52.72
54459;BME280;40368;49.350;8.152;2024-03-23T03:25:55;992.3;;;15.38;52.73
54459;BME280;40368;49.350;8.152;2024-03-23T03:26:55;992.4;;;15.34;52.73
54459;BME280;40368;49.350;8.152;2024-03-23T03:27:55;992.4;;;15.32;53.07
54459;BME280;40368;49.350;8.152;2024-03-23T03:28:56;992.4;;;15.34;53.06
54459;BME280;40368;49.350;8.152;2024-03-23T03:29:55;992.4;;;15.31;52.97
54459;BME280;40368;49.350;8.152;2024-03-23T03:30:56;992.3;;;15.35;52.89
54459;BME280;40368;49.350;8.152;2024-03-23T03:31:55;992.3;;;15.34;52.96
54459;BME280;40368;49.350;8.152;2024-03-23T03:32:55;992.3;;;15.37;53.1
54459;BME280;40368;49.350;8.152;2024-03-23T03:33:55;992.3;;;15.41;53.03
54459;BME280;40368;49.350;8.152;2024-03-23T03:34:56;992.4;;;15.41;52.87
54459;BME280;40368;49.350;8.152;2024-03-23T03:35:55;992.3;;;15.42;52.73
54459;BME280;40368;49.350;8.152;2024-03-23T03:36:55;992.3;;;15.4;52.7
54459;BME280;40368;49.350;8.152;2024-03-23T03:37:56;992.2;;;15.41;52.8
54459;BME280;40368;49.350;8.152;2024-03-23T03:38:55;992.3;;;15.4;52.82
54459;BME280;40368;49.350;8.152;2024-03-23T03:39:55;992.3;;;15.39;52.76
54459;BME280;40368;49.350;8.152;2024-03-23T03:40:55;992.3;;;15.4;52.72
54459;BME280;40368;49.350;8.152;2024-03-23T03:41:55;992.2;;;15.4;52.89
54459;BME280;40368;49.350;8.152;2024-03-23T03:42:55;992.3;;;15.41;52.66
54459;BME280;40368;49.350;8.152;2024-03-23T03:43:56;992.4;;;15.39;52.75
54459;BME280;40368;49.350;8.152;2024-03-23T03:44:55;992.2;;;15.36;53.05
54459;BME280;40368;49.350;8.152;2024-03-23T03:45:56;992.1;;;15.33;53
54459;BME280;40368;49.350;8.152;2024-03-23T03:46:56;992.1;;;15.29;53.22
54459;BME280;40368;49.350;8.152;2024-03-23T03:47:56;992.1;;;15.26;53.03
54459;BME280;40368;49.350;8.152;2024-03-23T03:48:54;992.2;;;15.24;53.15
54459;BME280;40368;49.350;8.152;2024-03-23T03:49:55;992.2;;;15.23;53.17
54459;BME280;40368;49.350;8.152;2024-03-23T03:50:55;992.3;;;15.22;53.31
54459;BME280;40368;49.350;8.152;2024-03-23T03:51:55;992.2;;;15.2;53.49
54459;BME280;40368;49.350;8.152;2024-03-23T03:52:55;992.3;;;15.22;53.58
54459;BME280;40368;49.350;8.152;2024-03-23T03:53:56;992.2;;;15.21;53.71
54459;BME280;40368;49.350;8.152;2024-03-23T03:54:59;992.1;;;15.2;53.56
54459;BME280;40368;49.350;8.152;2024-03-23T03:55:55;992.2;;;15.21;53.61
54459;BME280;40368;49.350;8.152;2024-03-23T03:56:55;992.2;;;15.18;53.98
54459;BME280;40368;49.350;8.152;2024-03-23T03:57:55;992.1;;;15.19;53.67
54459;BME280;40368;49.350;8.152;2024-03-23T03:58:55;992;;;15.17;53.58
54459;BME280;40368;49.350;8.152;2024-03-23T03:59:55;992.1;;;15.19;53.63
54459;BME280;40368;49.350;8.152;2024-03-23T04:00:55;992;;;15.18;53.57
54459;BME280;40368;49.350;8.152;2024-03-23T04:01:55;992.2;;;15.19;53.61
54459;BME280;40368;49.350;8.152;2024-03-23T04:02:56;992.2;;;15.19;53.58
54459;BME280;40368;49.350;8.152;2024-03-23T04:03:55;992.1;;;15.18;53.67
54459;BME280;40368;49.350;8.152;2024-03-23T04:04:56;992.2;;;15.16;53.74
54459;BME280;40368;49.350;8.152;2024-03-23T04:05:55;992;;;15.13;53.74
54459;BME280;40368;49.350;8.152;2024-03-23T04:06:57;992.1;;;15.12;53.79
54459;BME280;40368;49.350;8.152;2024-03-23T04:07:56;992.2;;;15.11;53.79
54459;BME280;40368;49.350;8.152;2024-03-23T04:08:55;992.1;;;15.08;54
54459;BME280;40368;49.350;8.152;2024-03-23T04:09:55;992;;;15.05;53.8
54459;BME280;40368;49.350;8.152;2024-03-23T04:10:55;992.1;;;15.04;53.83
54459;BME280;40368;49.350;8.152;2024-03-23T04:11:55;992.1;;;15.05;53.91
54459;BME280;40368;49.350;8.152;2024-03-23T04:12:55;992.1;;;15.08;53.99
54459;BME280;40368;49.350;8.152;2024-03-23T04:13:55;992.1;;;15.1;53.82
54459;BME280;40368;49.350;8.152;2024-03-23T04:14:55;992.1;;;15.08;53.69
54459;BME280;40368;49.350;8.152;2024-03-23T04:15:55;992.1;;;15.1;53.83
54459;BME280;40368;49.350;8.152;2024-03-23T04:16:55;992.2;;;15.1;53.76
54459;BME280;40368;49.350;8.152;2024-03-23T04:17:55;992.2;;;15.07;53.72
54459;BME280;40368;49.350;8.152;2024-03-23T04:18:55;992.2;;;15.08;53.69
54459;BME280;40368;49.350;8.152;2024-03-23T04:19:55;992.3;;;15.05;53.66
54459;BME280;40368;49.350;8.152;2024-03-23T04:20:55;992.3;;;15.04;53.54
54459;BME280;40368;49.350;8.152;2024-03-23T04:21:55;992.3;;;14.99;53.51
54459;BME280;40368;49.350;8.152;2024-03-23T04:22:55;992.4;;;14.93;53.81
54459;BME280;40368;49.350;8.152;2024-03-23T04:23:55;992.3;;;14.94;53.74
54459;BME280;40368;49.350;8.152;2024-03-23T04:24:56;992.3;;;14.92;53.95
54459;BME280;40368;49.350;8.152;2024-03-23T04:25:55;992.3;;;14.9;54.04
54459;BME280;40368;49.350;8.152;2024-03-23T04:26:55;992.5;;;14.89;54.02
54459;BME280;40368;49.350;8.152;2024-03-23T04:27:55;992.3;;;14.86;53.68
54459;BME280;40368;49.350;8.152;2024-03-23T04:28:56;992.3;;;14.84;54.14
54459;BME280;40368;49.350;8.152;2024-03-23T04:29:55;992.3;;;14.86;54.08
54459;BME280;40368;49.350;8.152;2024-03-23T04:30:56;992.3;;;14.87;53.76
54459;BME280;40368;49.350;8.152;2024-03-23T04:31:55;992.3;;;14.87;53.85
54459;BME280;40368;49.350;8.152;2024-03-23T04:32:55;992.7;;;14.86;53.61
54459;BME280;40368;49.350;8.152;2024-03-23T04:33:55;992.5;;;14.84;53.43
54459;BME280;40368;49.350;8.152;2024-03-23T04:34:55;992.3;;;14.77;53.15
54459;BME280;40368;49.350;8.152;2024-03-23T04:35:55;992.6;;;14.68;53.64
54459;BME280;40368;49.350;8.152;2024-03-23T04:36:55;992.4;;;14.68;53.78
54459;BME280;40368;49.350;8.152;2024-03-23T04:37:55;992.5;;;14.69;53.81
54459;BME280;40368;49.350;8.152;2024-03-23T04:38:55;992.6;;;14.69;54.01
54459;BME280;40368;49.350;8.152;2024-03-23T04:39:56;992.7;;;14.7;53.88
54459;BME280;40368;49.350;8.152;2024-03-23T04:40:55;992.6;;;14.64;53.82
54459;BME280;40368;49.350;8.152;2024-03-23T04:41:55;992.7;;;14.64;54.03
54459;BME280;40368;49.350;8.152;2024-03-23T04:42:55;992.5;;;14.63;55.21
54459;BME280;40368;49.350;8.152;2024-03-23T04:43:56;992.6;;;14.64;55.49
54459;BME280;40368;49.350;8.152;2024-03-23T04:44:55;992.7;;;14.64;55.6
54459;BME280;40368;49.350;8.152;2024-03-23T04:45:56;992.7;;;14.64;55.43
54459;BME280;40368;49.350;8.152;2024-03-23T04:46:55;992.6;;;14.59;54.97
54459;BME280;40368;49.350;8.152;2024-03-23T04:47:55;992.5;;;14.52;55.29
54459;BME280;40368;49.350;8.152;2024-03-23T04:48:55;992.6;;;14.53;55.48
54459;BME280;40368;49.350;8.152;2024-03-23T04:49:55;992.6;;;14.55;55.45
54459;BME280;40368;49.350;8.152;2024-03-23T04:50:55;992.5;;;14.58;55.36
54459;BME280;40368;49.350;8.152;2024-03-23T04:51:55;992.6;;;14.61;55.28
54459;BME280;40368;49.350;8.152;2024-03-23T04:52:55;992.7;;;14.62;55.9
54459;BME280;40368;49.350;8.152;2024-03-23T04:53:55;992.7;;;14.63;55.56
54459;BME280;40368;49.350;8.152;2024-03-23T04:54:55;992.7;;;14.58;55.5
54459;BME280;40368;49.350;8.152;2024-03-23T04:55:56;992.6;;;14.54;55.66
54459;BME280;40368;49.350;8.152;2024-03-23T04:56:55;992.6;;;14.52;55.21
54459;BME280;40368;49.350;8.152;2024-03-23T04:57:55;992.7;;;14.5;55.32
54459;BME280;40368;49.350;8.152;2024-03-23T04:58:55;992.7;;;14.48;55.14
54459;BME280;40368;49.350;8.152;2024-03-23T04:59:55;992.8;;;14.47;55.35
54459;BME280;40368;49.350;8.152;2024-03-23T05:00:55;992.8;;;14.46;55.23
54459;BME280;40368;49.350;8.152;2024-03-23T05:01:55;992.7;;;14.43;55.28
54459;BME280;40368;49.350;8.152;2024-03-23T05:02:55;992.8;;;14.41;55.29
54459;BME280;40368;49.350;8.152;2024-03-23T05:03:55;992.8;;;14.35;55.47
54459;BME280;40368;49.350;8.152;2024-03-23T05:04:55;992.9;;;14.32;55.4
54459;BME280;40368;49.350;8.152;2024-03-23T05:05:55;993;;;14.31;55.35
54459;BME280;40368;49.350;8.152;2024-03-23T05:06:56;993;;;14.33;55.95
54459;BME280;40368;49.350;8.152;2024-03-23T05:07:55;993;;;14.35;55.22
54459;BME280;40368;49.350;8.152;2024-03-23T05:08:55;993;;;14.35;55.88
54459;BME280;40368;49.350;8.152;2024-03-23T05:09:55;993.2;;;14.32;56.04
54459;BME280;40368;49.350;8.152;2024-03-23T05:10:55;993.2;;;14.33;55.73
54459;BME280;40368;49.350;8.152;2024-03-23T05:11:55;993.2;;;14.37;55.52
54459;BME280;40368;49.350;8.152;2024-03-23T05:12:55;993.3;;;14.38;55.53
54459;BME280;40368;49.350;8.152;2024-03-23T05:13:55;993.2;;;14.34;56.17
54459;BME280;40368;49.350;8.152;2024-03-23T05:14:55;993.2;;;14.31;56.03
54459;BME280;40368;49.350;8.152;2024-03-23T05:15:55;993.2;;;14.28;56.06
54459;BME280;40368;49.350;8.152;2024-03-23T05:16:55;993.2;;;14.27;55.74
54459;BME280;40368;49.350;8.152;2024-03-23T05:17:55;993.1;;;14.21;56.04
54459;BME280;40368;49.350;8.152;2024-03-23T05:18:55;993.1;;;14.17;56.2
54459;BME280;40368;49.350;8.152;2024-03-23T05:19:55;993.1;;;14.14;55.95
54459;BME280;40368;49.350;8.152;2024-03-23T05:20:55;993;;;14.08;56.11
54459;BME280;40368;49.350;8.152;2024-03-23T05:21:55;993;;;14.05;56.38
54459;BME280;40368;49.350;8.152;2024-03-23T05:22:55;993.1;;;14.01;56.44
54459;BME280;40368;49.350;8.152;2024-03-23T05:23:55;993.1;;;14.02;56.37
54459;BME280;40368;49.350;8.152;2024-03-23T05:24:55;993.1;;;14.01;56.3
54459;BME280;40368;49.350;8.152;2024-03-23T05:25:55;993.1;;;13.96;55.67
54459;BME280;40368;49.350;8.152;2024-03-23T05:26:55;993.1;;;14.01;55.56
54459;BME280;40368;49.350;8.152;2024-03-23T05:27:55;993.1;;;13.93;55.88
54459;BME280;40368;49.350;8.152;2024-03-23T05:28:55;993.1;;;13.92;55.74
54459;BME280;40368;49.350;8.152;2024-03-23T05:29:55;993.2;;;13.85;55.71
54459;BME280;40368;49.350;8.152;2024-03-23T05:30:55;993;;;13.85;55.89
54459;BME280;40368;49.350;8.152;2024-03-23T05:31:55;993.3;;;13.84;55.71
54459;BME280;40368;49.350;8.152;2024-03-23T05:32:55;993.2;;;13.85;55.77
54459;BME280;40368;49.350;8.152;2024-03-23T05:33:55;993.2;;;13.88;56.16
54459;BME280;40368;49.350;8.152;2024-03-23T05:34:55;993.2;;;13.91;55.93
54459;BME280;40368;49.350;8.152;2024-03-23T05:35:56;993.2;;;13.91;55.63
54459;BME280;40368;49.350;8.152;2024-03-23T05:36:56;993.4;;;13.94;55.75
54459;BME280;40368;49.350;8.152;2024-03-23T05:37:55;993.3;;;13.93;55.09
54459;BME280;40368;49.350;8.152;2024-03-23T05:38:55;993.3;;;13.91;55.29
54459;BME280;40368;49.350;8.152;2024-03-23T05:39:55;993.4;;;13.92;55.52
54459;BME280;40368;49.350;8.152;2024-03-23T05:40:55;993.4;;;13.91;55.53
54459;BME280;40368;49.350;8.152;2024-03-23T05:41:55;993.5;;;13.87;54.79
54459;BME280;40368;49.350;8.152;2024-03-23T05:42:55;993.6;;;13.85;54.73
54459;BME280;40368;49.350;8.152;2024-03-23T05:43:55;993.5;;;13.8;54.73
54459;BME280;40368;49.350;8.152;2024-03-23T05:44:55;993.6;;;13.81;54.48
54459;BME280;40368;49.350;8.152;2024-03-23T05:45:55;993.6;;;13.79;54.28
54459;BME280;40368;49.350;8.152;2024-03-23T05:46:55;993.6;;;13.72;54.05
54459;BME280;40368;49.350;8.152;2024-03-23T05:47:55;993.6;;;13.62;53.77
54459;BME280;40368;49.350;8.152;2024-03-23T05:48:55;993.6;;;13.61;53.58
54459;BME280;40368;49.350;8.152;2024-03-23T05:49:56;993.6;;;13.61;54.08
54459;BME280;40368;49.350;8.152;2024-03-23T05:50:55;993.6;;;13.61;53.47
54459;BME280;40368;49.350;8.152;2024-03-23T05:51:55;993.7;;;13.55;53.48
54459;BME280;40368;49.350;8.152;2024-03-23T05:52:55;993.7;;;13.58;53.58
54459;BME280;40368;49.350;8.152;2024-03-23T05:53:55;993.6;;;13.59;54.44
54459;BME280;40368;49.350;8.152;2024-03-23T05:54:56;993.6;;;13.63;53.44
54459;BME280;40368;49.350;8.152;2024-03-23T05:56:00;993.6;;;13.62;53.53
54459;BME280;40368;49.350;8.152;2024-03-23T05:56:55;993.6;;;13.57;53.45
54459;BME280;40368;49.350;8.152;2024-03-23T05:57:55;993.7;;;13.57;53.59
54459;BME280;40368;49.350;8.152;2024-03-23T05:58:55;993.7;;;13.58;53.4
54459;BME280;40368;49.350;8.152;2024-03-23T05:59:55;994;;;13.61;53.41
54459;BME280;40368;49.350;8.152;2024-03-23T06:00:57;993.9;;;13.59;53.42
54459;BME280;40368;49.350;8.152;2024-03-23T06:01:55;994;;;13.58;53.37
54459;BME280;40368;49.350;8.152;2024-03-23T06:02:55;994.2;;;13.56;53.26
54459;BME280;40368;49.350;8.152;2024-03-23T06:03:55;994;;;13.52;53.24
54459;BME280;40368;49.350;8.152;2024-03-23T06:04:55;994;;;13.46;52.82
54459;BME280;40368;49.350;8.152;2024-03-23T06:05:55;994.1;;;13.42;52.64
54459;BME280;40368;49.350;8.152;2024-03-23T06:06:55;994.1;;;13.32;53.23
54459;BME280;40368;49.350;8.152;2024-03-23T06:07:55;994.2;;;13.37;52.87
54459;BME280;40368;49.350;8.152;2024-03-23T06:08:55;994.2;;;13.36;53.09
54459;BME280;40368;49.350;8.152;2024-03-23T06:09:55;994.2;;;13.25;53.86
54459;BME280;40368;49.350;8.152;2024-03-23T06:10:55;994.2;;;13.14;54.47
54459;BME280;40368;49.350;8.152;2024-03-23T06:11:55;994.1;;;13.14;54.93
54459;BME280;40368;49.350;8.152;2024-03-23T06:12:55;994.2;;;13.15;55.22
54459;BME280;40368;49.350;8.152;2024-03-23T06:13:55;994.2;;;13.17;55.23
54459;BME280;40368;49.350;8.152;2024-03-23T06:14:55;994.3;;;13.13;55.23
54459;BME280;40368;49.350;8.152;2024-03-23T06:15:55;994.1;;;13.21;54.82
54459;BME280;40368;49.350;8.152;2024-03-23T06:16:56;994.1;;;13.24;55.57
54459;BME280;40368;49.350;8.152;2024-03-23T06:17:55;994.1;;;13.24;55.13
54459;BME280;40368;49.350;8.152;2024-03-23T06:18:55;994.1;;;13.22;55.4
54459;BME280;40368;49.350;8.152;2024-03-23T06:19:55;994.1;;;13.17;55.22
54459;BME280;40368;49.350;8.152;2024-03-23T06:20:55;994.1;;;13.19;55.53
54459;BME280;40368;49.350;8.152;2024-03-23T06:21:55;994;;;13.16;55.38
54459;BME280;40368;49.350;8.152;2024-03-23T06:22:55;994.2;;;13.2;55.68
54459;BME280;40368;49.350;8.152;2024-03-23T06:23:55;994.1;;;13.16;55.49
54459;BME280;40368;49.350;8.152;2024-03-23T06:24:55;994.2;;;13.17;55.37
54459;BME280;40368;49.350;8.152;2024-03-23T06:25:55;994.2;;;13.17;55.2
54459;BME280;40368;49.350;8.152;2024-03-23T06:26:56;994.3;;;13.11;55.33
54459;BME280;40368;49.350;8.152;2024-03-23T06:27:55;994.3;;;13.08;55.09
54459;BME280;40368;49.350;8.152;2024-03-23T06:28:55;994.5;;;13.09;55.56